createdAt,value
2022-11-28T00:01:24.754Z,101425.94
2022-11-28T00:03:51.728Z,101427.06
2022-11-28T00:06:18.570Z,101420.06
2022-11-28T00:08:45.321Z,101418.06
2022-11-28T00:11:13.801Z,101419.34
2022-11-28T00:13:41.272Z,101414.66
2022-11-28T00:16:09.776Z,101415.31
2022-11-28T00:18:36.379Z,101413.97
2022-11-28T00:21:09.302Z,101404.03
2022-11-28T00:23:36.663Z,101400.72
2022-11-28T00:26:07.875Z,101401.34
2022-11-28T00:28:34.433Z,101390.66
2022-11-28T00:31:01.061Z,101395.72
2022-11-28T00:33:27.972Z,101391.91
2022-11-28T00:36:02.924Z,101391.00
2022-11-28T00:38:29.898Z,101390.63
2022-11-28T00:41:07.080Z,101393.34
2022-11-28T00:43:34.394Z,101394.56
2022-11-28T00:46:00.892Z,101389.59
2022-11-28T00:48:27.453Z,101386.31
2022-11-28T00:50:54.944Z,101396.25
2022-11-28T00:53:21.793Z,101389.63
2022-11-28T00:55:48.191Z,101387.16
2022-11-28T00:58:14.622Z,101387.34
2022-11-28T01:00:41.174Z,101384.97
2022-11-28T01:03:07.740Z,101379.41
2022-11-28T01:05:40.459Z,101365.63
2022-11-28T01:08:06.912Z,101375.66
2022-11-28T01:10:33.432Z,101365.59
2022-11-28T01:12:59.850Z,101362.75
2022-11-28T01:15:26.359Z,101362.81
2022-11-28T01:17:52.797Z,101355.69
2022-11-28T01:20:19.289Z,101351.69
2022-11-28T01:22:45.908Z,101349.75
2022-11-28T01:25:12.325Z,101343.31
2022-11-28T01:27:38.775Z,101347.84
2022-11-28T01:30:06.138Z,101346.47
2022-11-28T01:32:32.535Z,101344.09
2022-11-28T01:34:58.988Z,101336.34
2022-11-28T01:37:25.459Z,101334.19
2022-11-28T01:39:51.886Z,101328.31
2022-11-28T01:42:20.140Z,101330.00
2022-11-28T01:44:49.574Z,101331.50
2022-11-28T01:47:21.092Z,101330.59
2022-11-28T01:49:48.590Z,101318.84
2022-11-28T01:52:17.262Z,101319.50
2022-11-28T01:54:48.819Z,101321.66
2022-11-28T01:57:16.709Z,101324.94
2022-11-28T01:59:51.228Z,101320.53
2022-11-28T02:02:30.064Z,101312.09
2022-11-28T02:04:56.703Z,101313.44
2022-11-28T02:07:23.646Z,101300.03
2022-11-28T02:09:50.105Z,101299.56
2022-11-28T02:12:59.896Z,101293.13
2022-11-28T02:16:05.482Z,101300.91
2022-11-28T02:19:08.449Z,101287.03
2022-11-28T02:22:02.683Z,101290.03
2022-11-28T02:24:41.275Z,101283.31
2022-11-28T02:27:25.379Z,101280.19
2022-11-28T02:30:14.760Z,101288.34
2022-11-28T02:32:52.773Z,101288.50
2022-11-28T02:35:54.832Z,101280.56
2022-11-28T02:38:47.252Z,101274.88
2022-11-28T02:41:28.656Z,101276.06
2022-11-28T02:44:04.437Z,101273.69
2022-11-28T02:46:52.912Z,101276.91
2022-11-28T02:49:54.438Z,101272.00
2022-11-28T02:52:31.733Z,101268.34
2022-11-28T02:54:59.705Z,101268.16
2022-11-28T02:57:37.984Z,101262.16
2022-11-28T03:00:32.426Z,101263.03
2022-11-28T03:03:01.625Z,101259.91
2022-11-28T03:05:55.816Z,101249.63
2022-11-28T03:08:28.087Z,101257.19
2022-11-28T03:11:18.311Z,101245.56
2022-11-28T03:14:05.525Z,101247.00
2022-11-28T03:16:48.991Z,101235.94
2022-11-28T03:19:32.946Z,101239.78
2022-11-28T03:22:28.574Z,101234.06
2022-11-28T03:25:03.285Z,101237.84
2022-11-28T03:27:42.301Z,101232.72
2022-11-28T03:30:17.014Z,101236.53
2022-11-28T03:32:46.076Z,101243.03
2022-11-28T03:35:17.160Z,101230.63
2022-11-28T03:37:54.179Z,101229.72
2022-11-28T03:40:33.484Z,101224.00
2022-11-28T03:43:09.705Z,101226.78
2022-11-28T03:45:40.744Z,101218.47
2022-11-28T03:48:15.749Z,101217.97
2022-11-28T03:50:46.962Z,101232.38
2022-11-28T03:53:20.861Z,101231.69
2022-11-28T03:56:08.150Z,101218.28
2022-11-28T03:58:39.941Z,101220.06
2022-11-28T04:01:23.617Z,101220.44
2022-11-28T04:03:55.890Z,101217.22
2022-11-28T04:06:33.578Z,101211.19
2022-11-28T04:09:14.191Z,101205.25
2022-11-28T04:11:56.421Z,101206.13
2022-11-28T04:14:34.232Z,101207.09
2022-11-28T04:17:14.200Z,101202.19
2022-11-28T04:19:49.837Z,101204.41
2022-11-28T04:22:30.944Z,101206.13
2022-11-28T04:25:12.661Z,101203.25
2022-11-28T04:27:41.176Z,101203.81
2022-11-28T04:30:09.861Z,101201.97
2022-11-28T04:32:40.301Z,101195.13
2022-11-28T04:35:12.763Z,101194.72
2022-11-28T04:37:42.101Z,101187.09
2022-11-28T04:40:12.343Z,101181.47
2022-11-28T04:42:53.128Z,101179.81
2022-11-28T04:45:26.516Z,101176.78
2022-11-28T04:47:53.270Z,101177.72
2022-11-28T04:50:22.128Z,101175.94
2022-11-28T04:53:14.431Z,101180.78
2022-11-28T04:55:47.393Z,101174.88
2022-11-28T04:58:30.915Z,101178.53
2022-11-28T05:00:58.842Z,101182.25
2022-11-28T05:03:29.405Z,101184.41
2022-11-28T05:05:55.923Z,101182.31
2022-11-28T05:08:22.467Z,101185.59
2022-11-28T05:10:49.018Z,101181.78
2022-11-28T05:13:15.618Z,101187.81
2022-11-28T05:15:42.074Z,101190.38
2022-11-28T05:18:09.273Z,101178.84
2022-11-28T05:20:37.532Z,101174.09
2022-11-28T05:23:04.293Z,101178.53
2022-11-28T05:25:30.719Z,101176.47
2022-11-28T05:27:57.341Z,101184.78
2022-11-28T05:30:23.741Z,101183.91
2022-11-28T05:32:50.193Z,101172.50
2022-11-28T05:35:16.774Z,101172.88
2022-11-28T05:37:43.221Z,101178.75
2022-11-28T05:40:09.867Z,101165.59
2022-11-28T05:42:36.783Z,101168.63
2022-11-28T05:45:05.187Z,101163.44
2022-11-28T05:47:33.319Z,101162.00
2022-11-28T05:49:59.884Z,101167.03
2022-11-28T05:52:29.658Z,101162.84
2022-11-28T05:54:56.191Z,101152.56
2022-11-28T05:57:22.658Z,101150.94
2022-11-28T05:59:49.099Z,101147.81
2022-11-28T06:02:15.645Z,101149.22
2022-11-28T06:04:42.263Z,101144.91
2022-11-28T06:07:08.895Z,101142.44
2022-11-28T06:09:35.373Z,101139.00
2022-11-28T06:12:02.005Z,101142.34
2022-11-28T06:14:28.597Z,101133.56
2022-11-28T06:16:55.083Z,101132.91
2022-11-28T06:19:21.572Z,101128.91
2022-11-28T06:21:50.349Z,101125.06
2022-11-28T06:24:16.818Z,101121.16
2022-11-28T06:26:43.384Z,101124.88
2022-11-28T06:29:09.958Z,101125.81
2022-11-28T06:31:36.571Z,101117.47
2022-11-28T06:34:03.128Z,101121.25
2022-11-28T06:36:30.656Z,101122.88
2022-11-28T06:38:57.502Z,101122.41
2022-11-28T06:41:23.971Z,101122.03
2022-11-28T06:43:50.693Z,101119.47
2022-11-28T06:46:20.354Z,101112.13
2022-11-28T06:48:48.255Z,101118.59
2022-11-28T06:51:15.680Z,101125.06
2022-11-28T06:53:42.714Z,101120.22
2022-11-28T06:56:14.240Z,101120.69
2022-11-28T06:58:41.199Z,101119.00
2022-11-28T07:01:13.987Z,101129.22
2022-11-28T07:03:41.646Z,101124.97
2022-11-28T07:06:12.546Z,101128.06
2022-11-28T07:08:39.622Z,101130.81
2022-11-28T07:11:16.035Z,101129.38
2022-11-28T07:13:45.858Z,101130.81
2022-11-28T07:16:31.666Z,101121.06
2022-11-28T07:18:59.631Z,101117.78
2022-11-28T07:21:27.194Z,101118.28
2022-11-28T07:23:54.117Z,101115.63
2022-11-28T07:26:22.078Z,101107.47
2022-11-28T07:28:51.184Z,101109.53
2022-11-28T07:31:21.045Z,101121.63
2022-11-28T07:33:53.029Z,101116.63
2022-11-28T07:36:22.872Z,101120.91
2022-11-28T07:38:51.533Z,101118.44
2022-11-28T07:41:22.504Z,101114.84
2022-11-28T07:43:55.150Z,101108.56
2022-11-28T07:46:22.056Z,101109.84
2022-11-28T07:48:49.489Z,101105.75
2022-11-28T07:51:22.477Z,101113.69
2022-11-28T07:53:57.950Z,101110.47
2022-11-28T07:56:39.466Z,101102.91
2022-11-28T07:59:14.666Z,101114.28
2022-11-28T08:01:41.282Z,101113.34
2022-11-28T08:04:09.719Z,101117.84
2022-11-28T08:06:41.744Z,101110.88
2022-11-28T08:09:14.073Z,101108.56
2022-11-28T08:11:52.680Z,101098.59
2022-11-28T08:14:20.530Z,101101.47
2022-11-28T08:16:47.441Z,101096.44
2022-11-28T08:19:14.666Z,101103.97
2022-11-28T08:21:41.834Z,101093.28
2022-11-28T08:24:09.135Z,101090.19
2022-11-28T08:26:36.732Z,101085.66
2022-11-28T08:29:04.150Z,101083.53
2022-11-28T08:31:34.188Z,101076.66
2022-11-28T08:34:04.107Z,101092.72
2022-11-28T08:36:31.002Z,101089.69
2022-11-28T08:39:23.953Z,101083.00
2022-11-28T08:41:49.968Z,101083.66
2022-11-28T08:44:16.924Z,101081.06
2022-11-28T08:46:43.717Z,101087.63
2022-11-28T08:49:10.419Z,101087.16
2022-11-28T08:51:37.323Z,101083.75
2022-11-28T08:54:06.428Z,101087.16
2022-11-28T08:56:34.606Z,101087.41
2022-11-28T08:59:11.045Z,101090.03
2022-11-28T09:01:37.788Z,101092.56
2022-11-28T09:04:05.018Z,101099.25
2022-11-28T09:06:31.824Z,101103.78
2022-11-28T09:08:58.924Z,101106.78
2022-11-28T09:11:28.801Z,101097.00
2022-11-28T09:13:55.904Z,101097.22
2022-11-28T09:16:22.714Z,101102.16
2022-11-28T09:18:49.579Z,101111.25
2022-11-28T09:21:16.566Z,101103.34
2022-11-28T09:23:44.809Z,101093.72
2022-11-28T09:26:17.949Z,101098.44
2022-11-28T09:28:45.314Z,101109.88
2022-11-28T09:31:16.569Z,101101.25
2022-11-28T09:33:43.760Z,101094.56
2022-11-28T09:36:13.112Z,101088.75
2022-11-28T09:38:39.990Z,101079.91
2022-11-28T09:41:31.985Z,101078.97
2022-11-28T09:44:03.280Z,101077.88
2022-11-28T09:46:34.297Z,101078.97
2022-11-28T09:49:04.842Z,101073.81
2022-11-28T09:51:43.337Z,101067.81
2022-11-28T09:54:33.960Z,101058.59
2022-11-28T09:57:12.920Z,101051.66
2022-11-28T09:59:41.098Z,101054.31
2022-11-28T10:02:14.134Z,101049.19
2022-11-28T10:04:59.166Z,101051.28
2022-11-28T10:07:56.969Z,101061.69
2022-11-28T10:10:40.503Z,101064.22
2022-11-28T10:13:41.207Z,101062.47
2022-11-28T10:16:30.382Z,101070.50
2022-11-28T10:19:06.055Z,101074.00
2022-11-28T10:22:21.604Z,101068.81
2022-11-28T10:24:54.535Z,101070.19
2022-11-28T10:27:38.114Z,101067.03
2022-11-28T10:30:19.652Z,101074.75
2022-11-28T10:32:57.515Z,101067.84
2022-11-28T10:35:29.669Z,101060.00
2022-11-28T10:37:56.633Z,101042.53
2022-11-28T10:41:23.841Z,101053.31
2022-11-28T10:44:19.970Z,101054.47
2022-11-28T10:47:12.070Z,101040.88
2022-11-28T10:49:54.281Z,101040.69
2022-11-28T10:52:31.454Z,101033.16
2022-11-28T10:55:11.738Z,101028.38
2022-11-28T10:58:03.703Z,101027.00
2022-11-28T11:00:31.029Z,101026.19
2022-11-28T11:03:02.429Z,101027.75
2022-11-28T11:05:37.092Z,101019.63
2022-11-28T11:08:25.250Z,101026.38
2022-11-28T11:11:23.777Z,101032.75
2022-11-28T11:13:56.448Z,101017.56
2022-11-28T11:16:23.787Z,101027.97
2022-11-28T11:18:54.779Z,101021.16
2022-11-28T11:21:24.562Z,101021.41
2022-11-28T11:24:11.504Z,101023.88
2022-11-28T11:26:40.970Z,101018.44
2022-11-28T11:29:21.948Z,101020.59
2022-11-28T11:31:53.491Z,101014.72
2022-11-28T11:34:23.987Z,101024.50
2022-11-28T11:36:51.670Z,101027.69
2022-11-28T11:39:25.489Z,101024.28
2022-11-28T11:42:11.931Z,101029.19
2022-11-28T11:44:38.644Z,101017.88
2022-11-28T11:47:08.923Z,101021.09
2022-11-28T11:49:44.780Z,101025.75
2022-11-28T11:52:12.737Z,101011.88
2022-11-28T11:54:52.360Z,101005.41
2022-11-28T11:57:33.537Z,101015.63
2022-11-28T12:00:27.027Z,101009.75
2022-11-28T12:02:58.476Z,100999.69
2022-11-28T12:05:41.808Z,101003.25
2022-11-28T12:08:40.750Z,100988.59
2022-11-28T12:11:23.402Z,100992.38
2022-11-28T12:13:51.558Z,100979.44
2022-11-28T12:16:21.652Z,100982.13
2022-11-28T12:18:57.925Z,100978.03
2022-11-28T12:21:33.675Z,100976.81
2022-11-28T12:24:14.339Z,100972.50
2022-11-28T12:26:59.023Z,100968.97
2022-11-28T12:29:40.558Z,100970.75
2022-11-28T12:32:27.323Z,100961.22
2022-11-28T12:35:14.147Z,100965.00
2022-11-28T12:38:13.828Z,100971.16
2022-11-28T12:40:55.260Z,100971.19
2022-11-28T12:43:43.421Z,100962.78
2022-11-28T12:46:19.357Z,100975.28
2022-11-28T12:48:53.548Z,100972.75
2022-11-28T12:51:26.453Z,100972.63
2022-11-28T12:54:12.846Z,100972.38
2022-11-28T12:56:58.220Z,100967.03
2022-11-28T12:59:31.934Z,100972.22
2022-11-28T13:02:12.458Z,100960.59
2022-11-28T13:05:05.582Z,100963.81
2022-11-28T13:07:54.630Z,100967.31
2022-11-28T13:10:29.244Z,100965.81
2022-11-28T13:13:20.124Z,100954.00
2022-11-28T13:16:08.096Z,100948.16
2022-11-28T13:18:40.843Z,100954.19
2022-11-28T13:21:38.778Z,100956.03
2022-11-28T13:24:11.711Z,100951.84
2022-11-28T13:26:47.617Z,100952.63
2022-11-28T13:29:20.010Z,100948.41
2022-11-28T13:31:51.442Z,100946.59
2022-11-28T13:34:20.924Z,100947.69
2022-11-28T13:39:50.734Z,100949.56
2022-11-28T13:45:32.952Z,100942.91
2022-11-28T13:48:01.092Z,100940.31
2022-11-28T13:50:36.787Z,100946.22
2022-11-28T13:53:06.311Z,100941.41
2022-11-28T13:55:50.279Z,100943.09
2022-11-28T13:58:25.709Z,100937.78
2022-11-28T14:01:13.108Z,100938.13
2022-11-28T14:03:58.852Z,100938.38
2022-11-28T14:06:28.526Z,100945.78
2022-11-28T14:09:16.135Z,100944.34
2022-11-28T14:12:18.904Z,100945.53
2022-11-28T14:15:10.131Z,100938.25
2022-11-28T14:18:55.219Z,100938.75
2022-11-28T14:21:31.346Z,100939.00
2022-11-28T14:24:20.157Z,100938.13
2022-11-28T14:26:47.581Z,100939.84
2022-11-28T14:29:21.682Z,100939.19
2022-11-28T14:32:07.018Z,100933.50
2022-11-28T14:34:46.036Z,100938.03
2022-11-28T14:37:21.978Z,100937.84
2022-11-28T14:39:50.279Z,100941.47
2022-11-28T14:42:36.956Z,100932.22
2022-11-28T14:45:38.573Z,100944.28
2022-11-28T14:48:22.733Z,100936.34
2022-11-28T14:50:59.279Z,100943.34
2022-11-28T14:53:37.166Z,100945.28
2022-11-28T14:56:23.343Z,100948.31
2022-11-28T14:58:52.275Z,100956.50
2022-11-28T15:01:37.110Z,100951.09
2022-11-28T15:04:41.707Z,100959.69
2022-11-28T15:07:18.384Z,100958.72
2022-11-28T15:10:07.746Z,100958.81
2022-11-28T15:12:45.558Z,100963.38
2022-11-28T15:15:14.481Z,100968.91
2022-11-28T15:17:47.084Z,100974.91
2022-11-28T15:20:29.905Z,100964.63
2022-11-28T15:22:59.701Z,100969.41
2022-11-28T15:25:39.763Z,100967.16
2022-11-28T15:28:14.518Z,100976.72
2022-11-28T15:30:51.361Z,100959.03
2022-11-28T15:33:20.460Z,100970.34
2022-11-28T15:35:57.429Z,100975.94
2022-11-28T15:38:25.910Z,100971.19
2022-11-28T15:40:56.646Z,100967.03
2022-11-28T15:43:25.011Z,100969.69
2022-11-28T15:46:00.331Z,100973.63
2022-11-28T15:48:40.027Z,100971.84
2022-11-28T15:51:07.501Z,100969.47
2022-11-28T15:53:40.668Z,100968.50
2022-11-28T15:56:13.850Z,100970.16
2022-11-28T15:58:42.232Z,100973.28
2022-11-28T16:01:12.102Z,100972.16
2022-11-28T16:03:47.773Z,100966.66
2022-11-28T16:06:15.012Z,100980.19
2022-11-28T16:08:53.141Z,100975.69
2022-11-28T16:11:21.697Z,100984.88
2022-11-28T16:13:49.312Z,100975.31
2022-11-28T16:16:21.565Z,100984.22
2022-11-28T16:19:01.977Z,100985.25
2022-11-28T16:21:31.831Z,100988.78
2022-11-28T16:24:03.612Z,100985.00
2022-11-28T16:26:31.950Z,100981.81
2022-11-28T16:29:05.653Z,100981.13
2022-11-28T16:31:33.019Z,100983.69
2022-11-28T16:34:00.687Z,100983.03
2022-11-28T16:36:33.029Z,100968.78
2022-11-28T16:39:11.749Z,100977.75
2022-11-28T16:41:43.036Z,100974.53
2022-11-28T16:44:14.942Z,100981.31
2022-11-28T16:47:00.802Z,100975.88
2022-11-28T16:49:35.524Z,100968.47
2022-11-28T16:52:22.044Z,100982.34
2022-11-28T16:54:55.939Z,100988.63
2022-11-28T16:57:26.425Z,100990.06
2022-11-28T16:59:55.430Z,100988.47
2022-11-28T17:02:24.533Z,100992.94
2022-11-28T17:05:08.943Z,100987.06
2022-11-28T17:07:35.627Z,100988.22
2022-11-28T17:10:02.383Z,100988.50
2022-11-28T17:12:37.416Z,100991.22
2022-11-28T17:15:04.443Z,100991.22
2022-11-28T17:17:31.867Z,100994.66
2022-11-28T17:20:09.648Z,100987.69
2022-11-28T17:22:56.568Z,100981.53
2022-11-28T17:25:26.624Z,100988.78
2022-11-28T17:27:53.113Z,100975.78
2022-11-28T17:30:29.133Z,100977.19
2022-11-28T17:32:55.661Z,100969.16
2022-11-28T17:35:27.864Z,100970.31
2022-11-28T17:37:54.888Z,100968.28
2022-11-28T17:40:33.612Z,100979.66
2022-11-28T17:43:03.418Z,100983.75
2022-11-28T17:45:33.868Z,100975.59
2022-11-28T17:48:00.621Z,100988.84
2022-11-28T17:50:27.263Z,100976.50
2022-11-28T17:52:53.907Z,100983.53
2022-11-28T17:55:20.729Z,100981.88
2022-11-28T17:57:47.416Z,100978.38
2022-11-28T18:00:15.218Z,100984.41
2022-11-28T18:02:42.154Z,100983.03
2022-11-28T18:05:09.354Z,100987.25
2022-11-28T18:07:35.783Z,100980.94
2022-11-28T18:10:02.538Z,100986.44
2022-11-28T18:12:29.108Z,100977.09
2022-11-28T18:14:55.807Z,100978.22
2022-11-28T18:17:25.319Z,100984.56
2022-11-28T18:19:57.160Z,100995.81
2022-11-28T18:22:24.026Z,100989.88
2022-11-28T18:24:50.565Z,100987.94
2022-11-28T18:27:17.520Z,100991.25
2022-11-28T18:29:44.327Z,100990.53
2022-11-28T18:32:11.160Z,100986.34
2022-11-28T18:34:37.810Z,100991.38
2022-11-28T18:37:05.299Z,100974.19
2022-11-28T18:39:33.099Z,100972.28
2022-11-28T18:42:00.238Z,100974.47
2022-11-28T18:44:26.745Z,100965.41
2022-11-28T18:46:53.479Z,100967.78
2022-11-28T18:49:20.460Z,100967.09
2022-11-28T18:51:47.533Z,100962.84
2022-11-28T18:54:20.549Z,100949.94
2022-11-28T18:56:48.086Z,100967.59
2022-11-28T18:59:14.668Z,100971.72
2022-11-28T19:01:41.305Z,100982.38
2022-11-28T19:04:11.042Z,100967.53
2022-11-28T19:06:39.419Z,100974.25
2022-11-28T19:09:09.353Z,100971.25
2022-11-28T19:11:36.188Z,100971.53
2022-11-28T19:14:02.673Z,100967.75
2022-11-28T19:16:31.570Z,100973.22
2022-11-28T19:18:58.934Z,100979.75
2022-11-28T19:21:27.860Z,100974.47
2022-11-28T19:23:55.911Z,100973.16
2022-11-28T19:26:24.964Z,100973.59
2022-11-28T19:28:51.958Z,100976.00
2022-11-28T19:31:23.998Z,100977.47
2022-11-28T19:34:00.578Z,100981.28
2022-11-28T19:36:29.981Z,100972.88
2022-11-28T19:38:56.403Z,100974.84
2022-11-28T19:41:23.113Z,100974.28
2022-11-28T19:43:50.402Z,100972.22
2022-11-28T19:46:17.466Z,100979.84
2022-11-28T19:48:44.187Z,100990.38
2022-11-28T19:51:12.339Z,100983.13
2022-11-28T19:53:41.669Z,100994.22
2022-11-28T19:56:17.790Z,100985.41
2022-11-28T19:58:45.030Z,100984.19
2022-11-28T20:01:14.944Z,100987.94
2022-11-28T20:03:42.559Z,100990.03
2022-11-28T20:06:09.961Z,100983.78
2022-11-28T20:08:36.826Z,100987.09
2022-11-28T20:11:18.756Z,100987.09
2022-11-28T20:13:46.317Z,100996.09
2022-11-28T20:16:15.252Z,100996.16
2022-11-28T20:18:43.200Z,100990.69
2022-11-28T20:21:18.191Z,100995.16
2022-11-28T20:23:53.970Z,100994.09
2022-11-28T20:26:23.698Z,100997.66
2022-11-28T20:28:50.427Z,100996.16
2022-11-28T20:31:21.468Z,100992.00
2022-11-28T20:33:49.024Z,100994.09
2022-11-28T20:36:18.089Z,101003.16
2022-11-28T20:38:44.978Z,100999.63
2022-11-28T20:41:13.611Z,100994.28
2022-11-28T20:43:41.290Z,100988.81
2022-11-28T20:46:13.426Z,100999.66
2022-11-28T20:48:40.108Z,100997.31
2022-11-28T20:51:21.049Z,101002.69
2022-11-28T20:53:48.592Z,100994.03
2022-11-28T20:56:18.043Z,100988.31
2022-11-28T20:58:44.924Z,100995.41
2022-11-28T21:01:23.696Z,100993.44
2022-11-28T21:03:51.102Z,100997.50
2022-11-28T21:06:18.117Z,100995.81
2022-11-28T21:08:44.659Z,100998.97
2022-11-28T21:11:36.560Z,100995.22
2022-11-28T21:14:04.885Z,100997.97
2022-11-28T21:16:33.131Z,100994.09
2022-11-28T21:19:04.315Z,100988.53
2022-11-28T21:21:32.543Z,100989.09
2022-11-28T21:24:02.635Z,100990.31
2022-11-28T21:26:30.691Z,100990.59
2022-11-28T21:29:01.715Z,100986.34
2022-11-28T21:31:31.851Z,100985.69
2022-11-28T21:33:59.175Z,100980.69
2022-11-28T21:36:27.491Z,100979.66
2022-11-28T21:38:56.636Z,100980.81
2022-11-28T21:41:26.415Z,100990.59
2022-11-28T21:43:54.164Z,100990.53
2022-11-28T21:46:21.084Z,100993.72
2022-11-28T21:48:47.706Z,100995.63
2022-11-28T21:51:23.599Z,100994.56
2022-11-28T21:53:50.831Z,100996.53
2022-11-28T21:56:17.950Z,100998.72
2022-11-28T21:58:44.398Z,100992.97
2022-11-28T22:01:13.131Z,100984.28
2022-11-28T22:03:41.060Z,100987.78
2022-11-28T22:06:22.412Z,100987.97
2022-11-28T22:08:49.321Z,100989.66
2022-11-28T22:11:16.179Z,100997.16
2022-11-28T22:13:45.150Z,100998.06
2022-11-28T22:16:16.699Z,100986.16
2022-11-28T22:18:46.802Z,100996.00
2022-11-28T22:21:49.948Z,100991.75
2022-11-28T22:24:02.723Z,100993.34
2022-11-28T22:26:29.223Z,100995.34
2022-11-28T22:28:55.655Z,100999.00
2022-11-28T22:31:22.610Z,100997.69
2022-11-28T22:33:50.378Z,100997.88
2022-11-28T22:36:18.961Z,101002.22
2022-11-28T22:38:46.725Z,101000.50
2022-11-28T22:41:23.295Z,100991.75
2022-11-28T22:43:55.624Z,100987.09
2022-11-28T22:46:22.846Z,100988.25
2022-11-28T22:48:49.355Z,100997.22
2022-11-28T22:51:20.007Z,100997.41
2022-11-28T22:53:46.604Z,100995.06
2022-11-28T22:56:15.476Z,100997.81
2022-11-28T22:58:44.227Z,100999.69
2022-11-28T23:01:13.172Z,100995.72
2022-11-28T23:03:39.879Z,100997.41
2022-11-28T23:06:08.713Z,100995.16
2022-11-28T23:08:35.920Z,101006.94
2022-11-28T23:11:11.272Z,101005.03
2022-11-28T23:13:40.195Z,101001.75
2022-11-28T23:16:09.518Z,100995.41
2022-11-28T23:18:35.938Z,100995.06
2022-11-28T23:21:02.405Z,101001.84
2022-11-28T23:23:31.726Z,100989.75
2022-11-28T23:26:05.071Z,100996.00
2022-11-28T23:28:32.626Z,100992.28
2022-11-28T23:31:07.369Z,100996.25
2022-11-28T23:33:33.912Z,101006.38
2022-11-28T23:36:00.435Z,101002.63
2022-11-28T23:38:27.007Z,100998.25
2022-11-28T23:40:57.082Z,101000.16
2022-11-28T23:43:23.542Z,100993.53
2022-11-28T23:45:50.163Z,100997.13
2022-11-28T23:48:16.708Z,100991.94
2022-11-28T23:50:43.262Z,100989.94
2022-11-28T23:53:09.710Z,100985.31
2022-11-28T23:55:36.110Z,100988.03
2022-11-28T23:58:02.648Z,101000.03
